createdAt,value
2024-03-05T00:01:39.053Z,8.91
2024-03-05T00:04:06.673Z,8.89
2024-03-05T00:06:34.365Z,8.86
2024-03-05T00:09:01.595Z,8.79
2024-03-05T00:11:29.061Z,8.71
2024-03-05T00:13:56.891Z,8.77
2024-03-05T00:16:26.454Z,8.85
2024-03-05T00:18:53.401Z,8.85
2024-03-05T00:21:20.915Z,8.80
2024-03-05T00:23:48.014Z,8.77
2024-03-05T00:26:16.093Z,8.67
2024-03-05T00:28:43.682Z,8.61
2024-03-05T00:31:11.475Z,8.65
2024-03-05T00:33:38.589Z,8.59
2024-03-05T00:36:06.376Z,8.49
2024-03-05T00:38:34.443Z,8.45
2024-03-05T00:41:02.261Z,8.41
2024-03-05T00:43:29.180Z,8.43
2024-03-05T00:45:56.577Z,8.33
2024-03-05T00:48:23.724Z,8.30
2024-03-05T00:50:51.991Z,8.27
2024-03-05T00:53:19.380Z,8.25
2024-03-05T00:55:46.686Z,8.23
2024-03-05T00:58:14.053Z,8.25
2024-03-05T01:00:41.406Z,8.26
2024-03-05T01:03:08.467Z,8.24
2024-03-05T01:05:35.881Z,8.23
2024-03-05T01:08:04.196Z,8.13
2024-03-05T01:10:31.444Z,8.09
2024-03-05T01:12:58.499Z,8.02
2024-03-05T01:15:25.719Z,7.97
2024-03-05T01:17:53.156Z,8.02
2024-03-05T01:20:21.561Z,8.11
2024-03-05T01:22:48.822Z,8.09
2024-03-05T01:25:18.239Z,8.04
2024-03-05T01:27:45.526Z,8.00
2024-03-05T01:30:13.100Z,8.02
2024-03-05T01:32:40.098Z,8.05
2024-03-05T01:35:11.416Z,8.05
2024-03-05T01:37:38.806Z,8.05
2024-03-05T01:40:06.533Z,8.03
2024-03-05T01:42:33.801Z,8.07
2024-03-05T01:45:01.182Z,8.04
2024-03-05T01:47:28.405Z,8.09
2024-03-05T01:49:56.577Z,8.05
2024-03-05T01:52:24.499Z,8.08
2024-03-05T01:54:56.781Z,8.06
2024-03-05T01:57:25.087Z,8.08
2024-03-05T01:59:52.290Z,8.05
2024-03-05T02:02:19.245Z,8.02
2024-03-05T02:04:47.127Z,8.03
2024-03-05T02:07:14.453Z,8.06
2024-03-05T02:09:42.474Z,8.08
2024-03-05T02:12:11.847Z,8.08
2024-03-05T02:14:39.077Z,8.15
2024-03-05T02:17:06.180Z,8.09
2024-03-05T02:19:34.810Z,7.98
2024-03-05T02:22:04.315Z,7.92
2024-03-05T02:24:34.420Z,7.91
2024-03-05T02:27:03.987Z,7.82
2024-03-05T02:29:32.540Z,7.73
2024-03-05T02:31:59.701Z,7.64
2024-03-05T02:34:27.394Z,7.61
2024-03-05T02:36:54.430Z,7.57
2024-03-05T02:39:24.355Z,7.60
2024-03-05T02:41:51.339Z,7.58
2024-03-05T02:44:18.628Z,7.56
2024-03-05T02:46:48.094Z,7.57
2024-03-05T02:49:17.971Z,7.53
2024-03-05T02:51:49.032Z,7.38
2024-03-05T02:54:16.520Z,7.38
2024-03-05T02:56:43.600Z,7.32
2024-03-05T02:59:10.845Z,7.39
2024-03-05T03:01:38.109Z,7.40
2024-03-05T03:04:06.768Z,7.35
2024-03-05T03:06:34.163Z,7.31
2024-03-05T03:09:04.440Z,7.15
2024-03-05T03:11:31.649Z,7.23
2024-03-05T03:13:58.574Z,7.24
2024-03-05T03:16:25.897Z,7.17
2024-03-05T03:18:55.307Z,7.25
2024-03-05T03:21:23.756Z,7.36
2024-03-05T03:23:50.642Z,7.31
2024-03-05T03:26:18.048Z,7.34
2024-03-05T03:28:45.052Z,7.40
2024-03-05T03:31:12.896Z,7.51
2024-03-05T03:33:40.745Z,7.52
2024-03-05T03:36:08.631Z,7.51
2024-03-05T03:38:35.727Z,7.50
2024-03-05T03:41:03.099Z,7.49
2024-03-05T03:43:30.103Z,7.51
2024-03-05T03:45:58.031Z,7.57
2024-03-05T03:48:25.594Z,7.49
2024-03-05T03:50:52.974Z,7.49
2024-03-05T03:53:19.885Z,7.47
2024-03-05T03:55:47.396Z,7.54
2024-03-05T03:58:14.338Z,7.53
2024-03-05T04:00:41.683Z,7.50
2024-03-05T04:03:08.553Z,7.41
2024-03-05T04:05:38.135Z,7.33
2024-03-05T04:08:05.520Z,7.42
2024-03-05T04:10:33.038Z,7.34
2024-03-05T04:12:59.954Z,7.36
2024-03-05T04:15:27.097Z,7.24
2024-03-05T04:17:54.167Z,7.28
2024-03-05T04:20:21.678Z,7.19
2024-03-05T04:22:48.846Z,7.18
2024-03-05T04:25:17.262Z,7.17
2024-03-05T04:27:47.845Z,7.23
2024-03-05T04:30:15.369Z,7.26
2024-03-05T04:32:58.906Z,7.19
2024-03-05T04:35:29.688Z,7.31
2024-03-05T04:37:57.707Z,7.36
2024-03-05T04:40:25.168Z,7.34
2024-03-05T04:42:52.164Z,7.37
2024-03-05T04:45:19.531Z,7.30
2024-03-05T04:47:46.593Z,7.35
2024-03-05T04:50:16.464Z,7.34
2024-03-05T04:52:44.081Z,7.29
2024-03-05T04:55:14.290Z,7.24
2024-03-05T04:57:43.330Z,7.22
2024-03-05T05:00:21.522Z,7.35
2024-03-05T05:02:50.453Z,7.36
2024-03-05T05:05:18.235Z,7.42
2024-03-05T05:07:48.033Z,7.52
2024-03-05T05:10:15.934Z,7.64
2024-03-05T05:12:44.912Z,7.77
2024-03-05T05:15:13.662Z,7.86
2024-03-05T05:17:41.017Z,7.95
2024-03-05T05:20:09.504Z,8.02
2024-03-05T05:22:40.011Z,8.08
2024-03-05T05:25:07.699Z,8.11
2024-03-05T05:27:36.530Z,8.18
2024-03-05T05:30:13.826Z,8.16
2024-03-05T05:32:41.846Z,8.15
2024-03-05T05:35:09.826Z,8.10
2024-03-05T05:37:38.276Z,8.08
2024-03-05T05:40:07.108Z,7.99
2024-03-05T05:42:34.287Z,7.94
2024-03-05T05:45:01.868Z,7.86
2024-03-05T05:47:29.288Z,7.86
2024-03-05T05:49:56.839Z,7.85
2024-03-05T05:52:23.961Z,7.81
2024-03-05T05:54:55.813Z,7.80
2024-03-05T05:57:22.761Z,7.81
2024-03-05T05:59:50.035Z,7.77
2024-03-05T06:02:20.771Z,7.86
2024-03-05T06:04:48.160Z,7.92
2024-03-05T06:07:15.338Z,7.92
2024-03-05T06:09:42.716Z,7.97
2024-03-05T06:12:09.669Z,8.23
2024-03-05T06:14:37.439Z,8.75
2024-03-05T06:17:04.684Z,9.36
2024-03-05T06:19:32.106Z,9.52
2024-03-05T06:21:59.117Z,9.52
2024-03-05T06:24:29.926Z,9.47
2024-03-05T06:26:57.451Z,9.50
2024-03-05T06:29:25.223Z,9.67
2024-03-05T06:31:52.406Z,9.78
2024-03-05T06:34:20.309Z,9.90
2024-03-05T06:36:50.465Z,10.21
2024-03-05T06:39:30.611Z,10.63
2024-03-05T06:42:01.037Z,10.36
2024-03-05T06:44:37.667Z,9.97
2024-03-05T06:47:06.092Z,9.84
2024-03-05T06:49:41.278Z,9.78
2024-03-05T06:52:35.166Z,9.87
2024-03-05T06:55:21.410Z,9.82
2024-03-05T06:57:48.417Z,9.89
2024-03-05T07:00:19.008Z,9.85
2024-03-05T07:02:46.040Z,9.96
2024-03-05T07:05:13.537Z,10.14
2024-03-05T07:07:41.124Z,10.15
2024-03-05T07:10:15.423Z,10.14
2024-03-05T07:12:46.307Z,10.14
2024-03-05T07:15:15.973Z,10.19
2024-03-05T07:17:45.771Z,10.36
2024-03-05T07:20:33.461Z,10.77
2024-03-05T07:23:00.756Z,10.50
2024-03-05T07:25:28.195Z,10.28
2024-03-05T07:27:56.060Z,10.12
2024-03-05T07:30:23.311Z,10.03
2024-03-05T07:32:50.431Z,9.89
2024-03-05T07:35:21.044Z,9.75
2024-03-05T07:37:50.716Z,9.65
2024-03-05T07:40:21.809Z,9.58
2024-03-05T07:42:54.836Z,9.60
2024-03-05T07:45:23.271Z,9.56
2024-03-05T07:47:51.376Z,9.46
2024-03-05T07:50:18.582Z,9.47
2024-03-05T07:52:48.970Z,9.45
2024-03-05T07:55:16.713Z,9.45
2024-03-05T07:57:44.417Z,9.50
2024-03-05T08:00:15.491Z,9.58
2024-03-05T08:02:46.312Z,9.56
2024-03-05T08:05:18.646Z,9.57
2024-03-05T08:07:46.703Z,9.58
2024-03-05T08:10:14.160Z,9.64
2024-03-05T08:12:45.469Z,9.72
2024-03-05T08:15:16.627Z,9.79
2024-03-05T08:17:47.638Z,9.91
2024-03-05T08:20:15.519Z,10.01
2024-03-05T08:22:43.886Z,9.99
2024-03-05T08:25:10.752Z,10.09
2024-03-05T08:27:39.673Z,10.07
2024-03-05T08:30:11.260Z,10.07
2024-03-05T08:32:39.089Z,10.01
2024-03-05T08:35:06.973Z,9.92
2024-03-05T08:37:37.221Z,9.94
2024-03-05T08:40:10.788Z,10.06
2024-03-05T08:42:38.247Z,9.95
2024-03-05T08:45:05.690Z,9.87
2024-03-05T08:47:34.946Z,9.78
2024-03-05T08:50:02.050Z,9.74
2024-03-05T08:52:29.574Z,9.73
2024-03-05T08:54:57.219Z,9.71
2024-03-05T08:57:26.973Z,9.88
2024-03-05T08:59:54.349Z,9.90
2024-03-05T09:02:21.937Z,9.93
2024-03-05T09:04:50.136Z,10.11
2024-03-05T09:07:19.119Z,10.20
2024-03-05T09:09:46.336Z,10.20
2024-03-05T09:12:15.187Z,10.28
2024-03-05T09:14:45.543Z,10.40
2024-03-05T09:17:12.981Z,10.50
2024-03-05T09:19:40.081Z,10.42
2024-03-05T09:22:07.510Z,10.51
2024-03-05T09:24:34.556Z,11.02
2024-03-05T09:27:02.072Z,11.43
2024-03-05T09:29:31.611Z,11.79
2024-03-05T09:32:04.034Z,11.85
2024-03-05T09:34:33.936Z,12.50
2024-03-05T09:37:01.389Z,13.03
2024-03-05T09:39:30.705Z,13.25
2024-03-05T09:42:00.328Z,13.33
2024-03-05T09:44:27.423Z,13.57
2024-03-05T09:46:55.302Z,13.71
2024-03-05T09:49:25.815Z,13.51
2024-03-05T09:51:56.711Z,13.45
2024-03-05T09:54:24.119Z,13.84
2024-03-05T09:56:54.345Z,13.86
2024-03-05T09:59:21.883Z,13.83
2024-03-05T10:01:50.965Z,13.57
2024-03-05T10:04:18.406Z,13.27
2024-03-05T10:06:51.838Z,13.32
2024-03-05T10:09:20.472Z,13.33
2024-03-05T10:11:50.131Z,13.62
2024-03-05T10:14:16.985Z,13.51
2024-03-05T10:16:47.188Z,13.54
2024-03-05T10:19:18.213Z,13.13
2024-03-05T10:21:47.731Z,12.95
2024-03-05T10:24:15.255Z,12.99
2024-03-05T10:26:42.491Z,13.04
2024-03-05T10:29:10.691Z,13.06
2024-03-05T10:31:44.140Z,13.26
2024-03-05T10:34:11.530Z,13.62
2024-03-05T10:36:46.381Z,13.61
2024-03-05T10:39:14.115Z,13.66
2024-03-05T10:41:47.443Z,13.28
2024-03-05T10:44:21.089Z,13.49
2024-03-05T10:46:51.348Z,13.40
2024-03-05T10:49:21.036Z,13.42
2024-03-05T10:51:48.844Z,13.62
2024-03-05T10:54:15.760Z,13.78
2024-03-05T10:56:44.890Z,13.94
2024-03-05T10:59:31.391Z,14.02
2024-03-05T11:02:00.040Z,14.11
2024-03-05T11:04:28.495Z,14.17
2024-03-05T11:06:56.864Z,14.16
2024-03-05T11:09:24.852Z,14.17
2024-03-05T11:12:01.946Z,14.31
2024-03-05T11:14:30.548Z,14.24
2024-03-05T11:17:01.296Z,14.24
2024-03-05T11:19:28.501Z,14.30
2024-03-05T11:21:56.287Z,14.50
2024-03-05T11:24:26.868Z,14.50
2024-03-05T11:27:13.049Z,14.38
2024-03-05T11:29:42.800Z,14.29
2024-03-05T11:32:11.416Z,14.25
2024-03-05T11:34:46.462Z,14.09
2024-03-05T11:37:16.530Z,14.19
2024-03-05T11:39:44.052Z,13.91
2024-03-05T11:42:20.904Z,14.30
2024-03-05T11:44:47.867Z,14.44
2024-03-05T11:47:22.418Z,14.52
2024-03-05T11:49:49.765Z,14.60
2024-03-05T11:52:19.851Z,14.78
2024-03-05T11:54:57.097Z,15.08
2024-03-05T11:57:24.670Z,14.80
2024-03-05T11:59:51.617Z,14.40
2024-03-05T12:02:19.007Z,14.14
2024-03-05T12:04:50.430Z,14.13
2024-03-05T12:07:18.660Z,13.98
2024-03-05T12:09:45.733Z,14.18
2024-03-05T12:12:17.813Z,14.14
2024-03-05T12:14:57.267Z,13.88
2024-03-05T12:17:27.677Z,13.69
2024-03-05T12:19:59.186Z,13.42
2024-03-05T12:22:29.230Z,13.32
2024-03-05T12:25:01.141Z,13.29
2024-03-05T12:27:28.800Z,13.24
2024-03-05T12:29:57.106Z,13.24
2024-03-05T12:32:26.955Z,13.04
2024-03-05T12:34:55.952Z,12.96
2024-03-05T12:37:25.364Z,12.93
2024-03-05T12:39:59.317Z,12.80
2024-03-05T12:42:26.650Z,12.77
2024-03-05T12:45:04.045Z,12.67
2024-03-05T12:47:32.628Z,12.60
2024-03-05T12:50:03.270Z,12.62
2024-03-05T12:52:33.349Z,12.57
2024-03-05T12:55:01.653Z,12.62
2024-03-05T12:57:30.668Z,12.76
2024-03-05T13:00:01.819Z,12.88
2024-03-05T13:02:29.904Z,12.93
2024-03-05T13:04:59.314Z,12.92
2024-03-05T13:07:27.784Z,12.83
2024-03-05T13:09:55.396Z,12.91
2024-03-05T13:12:24.499Z,12.94
2024-03-05T13:14:51.779Z,13.10
2024-03-05T13:17:19.158Z,12.91
2024-03-05T13:19:46.565Z,12.95
2024-03-05T13:22:14.532Z,13.01
2024-03-05T13:24:42.027Z,13.19
2024-03-05T13:27:09.424Z,13.31
2024-03-05T13:29:37.195Z,13.33
2024-03-05T13:32:07.760Z,13.57
2024-03-05T13:34:35.054Z,13.58
2024-03-05T13:37:02.491Z,13.74
2024-03-05T13:39:29.390Z,13.73
2024-03-05T13:41:56.942Z,13.77
2024-03-05T13:44:24.746Z,13.56
2024-03-05T13:46:53.377Z,13.46
2024-03-05T13:49:21.650Z,13.31
2024-03-05T13:51:52.630Z,13.44
2024-03-05T13:54:20.582Z,13.38
2024-03-05T13:56:48.038Z,13.30
2024-03-05T13:59:15.196Z,13.42
2024-03-05T14:01:42.888Z,13.40
2024-03-05T14:04:12.929Z,13.31
2024-03-05T14:06:40.544Z,13.25
2024-03-05T14:09:10.521Z,13.30
2024-03-05T14:11:42.145Z,13.17
2024-03-05T14:14:18.017Z,13.28
2024-03-05T14:16:48.535Z,13.26
2024-03-05T14:19:15.782Z,13.33
2024-03-05T14:21:43.068Z,13.48
2024-03-05T14:24:14.103Z,13.43
2024-03-05T14:26:43.215Z,13.63
2024-03-05T14:29:10.812Z,13.65
2024-03-05T14:31:38.310Z,13.56
2024-03-05T14:34:05.714Z,13.55
2024-03-05T14:36:33.084Z,13.39
2024-03-05T14:39:03.670Z,13.22
2024-03-05T14:41:30.972Z,13.08
2024-03-05T14:43:57.996Z,13.16
2024-03-05T14:46:26.171Z,13.17
2024-03-05T14:48:53.094Z,13.02
2024-03-05T14:51:20.505Z,12.92
2024-03-05T14:53:48.408Z,13.02
2024-03-05T14:56:18.079Z,13.01
2024-03-05T14:58:45.496Z,12.90
2024-03-05T15:01:12.712Z,12.90
2024-03-05T15:03:42.075Z,12.94
2024-03-05T15:06:10.402Z,12.94
2024-03-05T15:08:40.394Z,12.82
2024-03-05T15:11:11.214Z,12.74
2024-03-05T15:13:38.511Z,12.55
2024-03-05T15:16:09.065Z,12.40
2024-03-05T15:18:36.731Z,12.21
2024-03-05T15:21:15.580Z,12.08
2024-03-05T15:23:42.853Z,11.96
2024-03-05T15:26:13.192Z,11.89
2024-03-05T15:28:42.251Z,11.80
2024-03-05T15:31:12.675Z,11.82
2024-03-05T15:33:40.001Z,11.86
2024-03-05T15:36:07.644Z,11.94
2024-03-05T15:38:35.483Z,11.97
2024-03-05T15:41:04.196Z,11.98
2024-03-05T15:43:32.706Z,11.90
2024-03-05T15:46:00.055Z,11.88
2024-03-05T15:48:27.110Z,11.79
2024-03-05T15:50:54.531Z,11.66
2024-03-05T15:53:24.309Z,11.55
2024-03-05T15:56:05.672Z,11.35
2024-03-05T15:58:45.095Z,11.25
2024-03-05T16:01:13.187Z,11.12
2024-03-05T16:03:57.168Z,11.00
2024-03-05T16:06:30.690Z,10.89
2024-03-05T16:08:58.929Z,10.82
2024-03-05T16:11:26.825Z,10.74
2024-03-05T16:13:55.137Z,10.70
2024-03-05T16:16:24.882Z,10.67
2024-03-05T16:18:52.155Z,10.61
2024-03-05T16:21:19.653Z,10.58
2024-03-05T16:23:47.182Z,10.54
2024-03-05T16:26:14.584Z,10.51
2024-03-05T16:28:41.553Z,10.48
2024-03-05T16:31:13.142Z,10.53
2024-03-05T16:33:42.473Z,10.47
2024-03-05T16:36:09.704Z,10.37
2024-03-05T16:38:37.675Z,10.26
2024-03-05T16:41:07.441Z,10.21
2024-03-05T16:43:34.526Z,10.07
2024-03-05T16:46:02.150Z,10.00
2024-03-05T16:48:29.102Z,10.00
2024-03-05T16:50:58.107Z,9.96
2024-03-05T16:53:25.516Z,9.93
2024-03-05T16:55:52.971Z,9.89
2024-03-05T16:58:20.211Z,9.84
2024-03-05T17:00:56.364Z,9.86
2024-03-05T17:03:25.785Z,9.88
2024-03-05T17:05:54.811Z,9.88
2024-03-05T17:08:22.184Z,9.87
2024-03-05T17:10:51.429Z,9.85
2024-03-05T17:13:27.684Z,9.85
2024-03-05T17:16:01.555Z,9.77
2024-03-05T17:18:32.019Z,9.74
2024-03-05T17:20:59.838Z,9.72
2024-03-05T17:23:28.011Z,9.64
2024-03-05T17:25:57.648Z,9.56
2024-03-05T17:28:27.912Z,9.44
2024-03-05T17:30:56.053Z,9.37
2024-03-05T17:33:26.282Z,9.22
2024-03-05T17:35:56.767Z,9.13
2024-03-05T17:38:25.025Z,9.01
2024-03-05T17:40:53.139Z,8.89
2024-03-05T17:43:20.951Z,8.76
2024-03-05T17:45:49.309Z,8.71
2024-03-05T17:48:16.418Z,8.66
2024-03-05T17:50:46.245Z,8.54
2024-03-05T17:53:13.989Z,8.43
2024-03-05T17:55:41.442Z,8.49
2024-03-05T17:58:09.674Z,8.49
2024-03-05T18:00:46.459Z,8.51
2024-03-05T18:03:15.862Z,8.57
2024-03-05T18:05:46.982Z,8.61
2024-03-05T18:08:14.723Z,8.68
2024-03-05T18:10:42.891Z,8.73
2024-03-05T18:13:10.944Z,8.78
2024-03-05T18:15:38.308Z,8.82
2024-03-05T18:18:07.896Z,8.84
2024-03-05T18:20:37.072Z,8.88
2024-03-05T18:23:06.660Z,8.84
2024-03-05T18:25:36.303Z,8.85
2024-03-05T18:28:05.301Z,8.84
2024-03-05T18:30:36.524Z,8.77
2024-03-05T18:33:08.429Z,8.68
2024-03-05T18:35:41.773Z,8.71
2024-03-05T18:38:21.308Z,8.68
2024-03-05T18:40:58.424Z,8.73
2024-03-05T18:43:26.388Z,8.75
2024-03-05T18:45:54.017Z,8.81
2024-03-05T18:48:21.949Z,8.80
2024-03-05T18:50:49.754Z,8.86
2024-03-05T18:53:17.656Z,8.87
2024-03-05T18:55:45.989Z,8.88
2024-03-05T18:58:13.796Z,8.86
2024-03-05T19:00:43.027Z,8.87
2024-03-05T19:03:10.700Z,8.82
2024-03-05T19:05:38.756Z,8.77
2024-03-05T19:08:07.971Z,8.73
2024-03-05T19:10:35.962Z,8.69
2024-03-05T19:13:03.797Z,8.59
2024-03-05T19:15:31.186Z,8.46
2024-03-05T19:17:58.813Z,8.38
2024-03-05T19:20:27.400Z,8.26
2024-03-05T19:22:57.701Z,8.18
2024-03-05T19:25:29.394Z,8.06
2024-03-05T19:27:56.620Z,7.98
2024-03-05T19:30:24.015Z,7.92
2024-03-05T19:32:51.001Z,7.85
2024-03-05T19:35:19.237Z,7.70
2024-03-05T19:37:47.895Z,7.62
2024-03-05T19:40:22.804Z,7.60
2024-03-05T19:43:00.081Z,7.61
2024-03-05T19:45:27.856Z,7.50
2024-03-05T19:47:56.002Z,7.42
2024-03-05T19:50:28.854Z,7.39
2024-03-05T19:52:58.696Z,7.21
2024-03-05T19:55:26.489Z,7.12
2024-03-05T19:57:54.105Z,7.07
2024-03-05T20:00:25.084Z,7.05
2024-03-05T20:02:54.782Z,7.02
2024-03-05T20:05:24.366Z,6.96
2024-03-05T20:07:53.858Z,6.93
2024-03-05T20:10:22.857Z,6.83
2024-03-05T20:12:50.590Z,6.84
2024-03-05T20:15:18.719Z,6.84
2024-03-05T20:17:48.157Z,6.75
2024-03-05T20:20:20.604Z,6.73
2024-03-05T20:22:49.026Z,6.72
2024-03-05T20:25:24.263Z,6.67
2024-03-05T20:27:53.559Z,6.68
2024-03-05T20:30:24.651Z,6.68
2024-03-05T20:32:52.960Z,6.67
2024-03-05T20:35:20.905Z,6.76
2024-03-05T20:37:50.751Z,6.88
2024-03-05T20:40:20.403Z,6.94
2024-03-05T20:42:49.039Z,6.98
2024-03-05T20:45:19.306Z,7.04
2024-03-05T20:47:50.324Z,7.07
2024-03-05T20:50:19.595Z,7.08
2024-03-05T20:52:47.010Z,7.15
2024-03-05T20:55:15.042Z,7.18
2024-03-05T20:57:44.826Z,7.21
2024-03-05T21:00:16.856Z,7.29
2024-03-05T21:02:44.719Z,7.38
2024-03-05T21:05:14.903Z,7.47
2024-03-05T21:07:44.848Z,7.52
2024-03-05T21:10:15.427Z,7.57
2024-03-05T21:12:42.912Z,7.62
2024-03-05T21:15:11.892Z,7.62
2024-03-05T21:17:40.037Z,7.67
2024-03-05T21:20:08.848Z,7.68
2024-03-05T21:22:36.202Z,7.73
2024-03-05T21:25:07.557Z,7.78
2024-03-05T21:27:38.735Z,7.80
2024-03-05T21:30:07.227Z,7.89
2024-03-05T21:32:34.706Z,7.92
2024-03-05T21:35:02.826Z,7.91
2024-03-05T21:37:30.031Z,7.90
2024-03-05T21:39:59.744Z,7.85
2024-03-05T21:42:27.043Z,7.86
2024-03-05T21:44:54.370Z,7.84
2024-03-05T21:47:24.910Z,7.86
2024-03-05T21:49:52.210Z,7.87
2024-03-05T21:52:19.484Z,7.84
2024-03-05T21:54:46.895Z,7.81
2024-03-05T21:57:13.914Z,7.70
2024-03-05T21:59:41.266Z,7.56
2024-03-05T22:02:08.233Z,7.38
2024-03-05T22:04:35.904Z,7.21
2024-03-05T22:07:03.816Z,7.04
2024-03-05T22:09:31.140Z,6.87
2024-03-05T22:11:59.637Z,6.74
2024-03-05T22:14:31.112Z,6.63
2024-03-05T22:16:58.091Z,6.52
2024-03-05T22:19:26.161Z,6.42
2024-03-05T22:21:53.319Z,6.34
2024-03-05T22:24:21.228Z,6.25
2024-03-05T22:26:48.372Z,6.20
2024-03-05T22:29:15.689Z,6.19
2024-03-05T22:31:45.356Z,6.13
2024-03-05T22:34:14.926Z,6.04
2024-03-05T22:36:41.973Z,6.02
2024-03-05T22:39:09.221Z,5.94
2024-03-05T22:41:36.537Z,5.84
2024-03-05T22:44:04.096Z,5.78
2024-03-05T22:46:31.109Z,5.74
2024-03-05T22:48:58.321Z,5.71
2024-03-05T22:51:25.828Z,5.63
2024-03-05T22:53:55.612Z,5.55
2024-03-05T22:56:22.518Z,5.57
2024-03-05T22:58:49.789Z,5.56
2024-03-05T23:01:17.367Z,5.66
2024-03-05T23:03:45.115Z,5.73
2024-03-05T23:06:18.610Z,5.80
2024-03-05T23:08:48.925Z,5.85
2024-03-05T23:11:16.421Z,5.86
2024-03-05T23:13:43.926Z,5.82
2024-03-05T23:16:10.859Z,5.74
2024-03-05T23:18:42.166Z,5.67
2024-03-05T23:21:11.918Z,5.62
2024-03-05T23:23:43.710Z,5.58
2024-03-05T23:26:10.921Z,5.49
2024-03-05T23:28:39.238Z,5.50
2024-03-05T23:31:11.715Z,5.49
2024-03-05T23:33:39.042Z,5.54
2024-03-05T23:36:06.486Z,5.48
2024-03-05T23:38:34.110Z,5.52
2024-03-05T23:41:01.333Z,5.51
2024-03-05T23:43:31.236Z,5.46
2024-03-05T23:45:58.361Z,5.40
2024-03-05T23:48:25.910Z,5.34
2024-03-05T23:50:52.870Z,5.32
2024-03-05T23:53:20.336Z,5.31
2024-03-05T23:55:47.356Z,5.34
2024-03-05T23:58:14.774Z,5.33
